createdAt,value
2022-10-21T00:02:13.603Z,92.41
2022-10-21T00:04:41.317Z,92.30
2022-10-21T00:07:09.209Z,91.38
2022-10-21T00:09:36.948Z,90.05
2022-10-21T00:12:04.921Z,89.34
2022-10-21T00:14:32.789Z,88.80
2022-10-21T00:17:01.933Z,88.54
2022-10-21T00:19:29.668Z,87.61
2022-10-21T00:21:57.441Z,88.04
2022-10-21T00:24:25.197Z,87.06
2022-10-21T00:26:54.656Z,85.93
2022-10-21T00:31:55.177Z,83.93
2022-10-21T00:34:28.481Z,82.50
2022-10-21T00:36:58.569Z,82.42
2022-10-21T00:39:26.309Z,82.83
2022-10-21T00:41:54.027Z,79.79
2022-10-21T00:44:21.772Z,81.29
2022-10-21T00:46:52.410Z,80.30
2022-10-21T00:49:25.811Z,79.78
2022-10-21T00:51:55.760Z,80.64
2022-10-21T00:54:24.869Z,80.84
2022-10-21T00:56:53.791Z,80.80
2022-10-21T00:59:22.288Z,80.91
2022-10-21T01:01:50.261Z,80.35
2022-10-21T01:04:18.036Z,80.48
2022-10-21T01:06:47.474Z,79.49
2022-10-21T01:09:15.900Z,80.71
2022-10-21T01:11:46.924Z,78.84
2022-10-21T01:14:24.514Z,79.60
2022-10-21T01:17:00.525Z,79.42
2022-10-21T01:19:53.982Z,79.16
2022-10-21T01:22:39.365Z,80.12
2022-10-21T01:25:26.423Z,80.04
2022-10-21T01:27:58.918Z,80.73
2022-10-21T01:30:46.250Z,80.11
2022-10-21T01:33:26.148Z,79.03
2022-10-21T01:35:57.246Z,79.70
2022-10-21T01:38:30.647Z,79.47
2022-10-21T01:41:03.023Z,79.27
2022-10-21T01:43:36.656Z,80.13
2022-10-21T01:46:08.496Z,80.17
2022-10-21T01:48:40.536Z,79.34
2022-10-21T01:51:10.179Z,79.83
2022-10-21T01:53:41.819Z,80.81
2022-10-21T01:56:10.629Z,79.31
2022-10-21T01:58:40.435Z,79.87
2022-10-21T02:01:10.469Z,78.44
2022-10-21T02:03:40.301Z,79.42
2022-10-21T02:06:08.138Z,79.96
2022-10-21T02:08:36.122Z,79.23
2022-10-21T02:11:07.362Z,79.49
2022-10-21T02:13:38.559Z,78.76
2022-10-21T02:16:11.657Z,78.91
2022-10-21T02:18:39.446Z,78.71
2022-10-21T02:21:10.047Z,78.96
2022-10-21T02:23:43.729Z,78.99
2022-10-21T02:26:11.701Z,79.25
2022-10-21T02:31:25.097Z,79.99
2022-10-21T02:33:59.124Z,79.29
2022-10-21T02:36:32.099Z,79.33
2022-10-21T02:39:04.761Z,79.04
2022-10-21T02:41:34.433Z,78.53
2022-10-21T02:44:03.653Z,78.02
2022-10-21T02:46:36.992Z,77.55
2022-10-21T02:49:04.986Z,77.37
2022-10-21T02:51:33.008Z,76.65
2022-10-21T02:54:00.919Z,76.66
2022-10-21T02:58:57.346Z,76.33
2022-10-21T03:01:25.218Z,75.70
2022-10-21T03:03:54.370Z,75.71
2022-10-21T03:06:22.160Z,75.19
2022-10-21T03:08:49.948Z,74.67
2022-10-21T03:11:17.718Z,75.40
2022-10-21T03:13:45.506Z,76.10
2022-10-21T03:16:13.222Z,74.55
2022-10-21T03:18:41.015Z,75.97
2022-10-21T03:21:10.138Z,76.17
2022-10-21T03:23:37.849Z,74.85
2022-10-21T03:26:05.710Z,76.21
2022-10-21T03:28:33.440Z,76.17
2022-10-21T03:31:01.226Z,75.06
2022-10-21T03:33:28.958Z,75.27
2022-10-21T03:35:56.702Z,75.57
2022-10-21T03:38:25.889Z,75.84
2022-10-21T03:40:53.647Z,75.79
2022-10-21T03:43:21.390Z,75.79
2022-10-21T03:45:49.316Z,74.43
2022-10-21T03:48:17.092Z,74.71
2022-10-21T03:50:44.881Z,74.46
2022-10-21T03:53:24.265Z,75.38
2022-10-21T03:56:01.783Z,75.51
2022-10-21T03:58:29.524Z,75.80
2022-10-21T04:00:57.273Z,76.00
2022-10-21T04:03:25.057Z,75.73
2022-10-21T04:05:52.936Z,76.15
2022-10-21T04:08:20.643Z,75.45
2022-10-21T04:10:48.785Z,75.31
2022-10-21T04:13:17.939Z,76.15
2022-10-21T04:15:45.670Z,74.50
2022-10-21T04:18:13.413Z,75.00
2022-10-21T04:20:41.165Z,75.16
2022-10-21T04:23:08.868Z,75.07
2022-10-21T04:25:36.616Z,74.97
2022-10-21T04:28:04.504Z,74.56
2022-10-21T04:30:33.594Z,74.92
2022-10-21T04:33:01.312Z,74.93
2022-10-21T04:35:29.119Z,74.11
2022-10-21T04:37:57.250Z,73.16
2022-10-21T04:40:25.103Z,73.44
2022-10-21T04:42:52.824Z,72.25
2022-10-21T04:45:20.538Z,72.25
2022-10-21T04:47:49.661Z,71.58
2022-10-21T04:50:17.588Z,71.50
2022-10-21T04:52:46.747Z,71.15
2022-10-21T04:55:14.507Z,72.34
2022-10-21T04:57:42.777Z,73.61
2022-10-21T05:00:12.016Z,74.19
2022-10-21T05:02:39.947Z,74.26
2022-10-21T05:05:10.247Z,74.68
2022-10-21T05:07:37.989Z,74.66
2022-10-21T05:10:06.778Z,74.95
2022-10-21T05:15:03.394Z,75.18
2022-10-21T05:17:31.165Z,75.98
2022-10-21T05:19:58.909Z,76.77
2022-10-21T05:22:28.063Z,77.23
2022-10-21T05:24:55.791Z,76.61
2022-10-21T05:27:23.601Z,75.82
2022-10-21T05:29:51.380Z,77.30
2022-10-21T05:32:19.101Z,77.88
2022-10-21T05:34:46.828Z,77.65
2022-10-21T05:37:14.547Z,77.78
2022-10-21T05:39:43.679Z,77.50
2022-10-21T05:42:11.504Z,77.47
2022-10-21T05:44:39.231Z,77.41
2022-10-21T05:47:06.994Z,76.77
2022-10-21T05:49:34.709Z,76.29
2022-10-21T05:52:03.041Z,76.05
2022-10-21T05:54:30.840Z,76.00
2022-10-21T05:56:59.961Z,76.90
2022-10-21T05:59:27.922Z,75.21
2022-10-21T06:01:55.649Z,74.11
2022-10-21T06:04:23.446Z,75.10
2022-10-21T06:06:51.200Z,74.11
2022-10-21T06:09:18.940Z,73.62
2022-10-21T06:11:46.683Z,75.97
2022-10-21T06:14:15.784Z,77.13
2022-10-21T06:16:43.695Z,77.37
2022-10-21T06:19:11.480Z,76.54
2022-10-21T06:21:39.244Z,74.65
2022-10-21T06:24:07.217Z,74.35
2022-10-21T06:26:36.921Z,74.13
2022-10-21T06:29:05.062Z,74.47
2022-10-21T06:31:34.286Z,75.66
2022-10-21T06:34:02.095Z,75.58
2022-10-21T06:36:30.503Z,73.48
2022-10-21T06:38:58.250Z,72.47
2022-10-21T06:41:26.059Z,71.71
2022-10-21T06:43:53.941Z,71.81
2022-10-21T06:46:21.719Z,71.38
2022-10-21T06:48:50.807Z,71.57
2022-10-21T06:51:20.889Z,71.47
2022-10-21T06:53:52.662Z,70.47
2022-10-21T06:56:23.047Z,71.36
2022-10-21T06:58:51.475Z,69.81
2022-10-21T07:01:34.427Z,69.39
2022-10-21T07:04:10.696Z,70.85
2022-10-21T07:06:38.754Z,70.38
2022-10-21T07:09:08.549Z,69.62
2022-10-21T07:11:36.697Z,68.01
2022-10-21T07:14:05.066Z,68.13
2022-10-21T07:16:34.620Z,69.00
2022-10-21T07:19:02.356Z,67.85
2022-10-21T07:21:32.535Z,69.03
2022-10-21T07:24:01.306Z,68.97
2022-10-21T07:26:30.649Z,68.20
2022-10-21T07:29:00.400Z,66.94
2022-10-21T07:31:28.973Z,66.74
2022-10-21T07:33:56.994Z,66.18
2022-10-21T07:36:27.101Z,66.35
2022-10-21T07:38:59.331Z,66.24
2022-10-21T07:41:29.428Z,66.22
2022-10-21T07:43:57.217Z,66.85
2022-10-21T07:46:25.068Z,66.68
2022-10-21T07:48:52.936Z,66.60
2022-10-21T07:51:25.713Z,66.63
2022-10-21T07:53:59.245Z,66.00
2022-10-21T07:56:28.952Z,66.81
2022-10-21T07:58:57.657Z,67.78
2022-10-21T08:01:25.801Z,67.92
2022-10-21T08:03:54.857Z,67.82
2022-10-21T08:06:23.792Z,69.09
2022-10-21T08:08:51.642Z,69.89
2022-10-21T08:11:24.944Z,71.95
2022-10-21T08:13:53.112Z,72.28
2022-10-21T08:16:20.917Z,72.54
2022-10-21T08:18:49.338Z,74.13
2022-10-21T08:21:17.243Z,73.79
2022-10-21T08:23:45.513Z,72.33
2022-10-21T08:26:14.558Z,72.04
2022-10-21T08:28:44.088Z,71.48
2022-10-21T08:31:13.255Z,71.68
2022-10-21T08:33:41.086Z,71.12
2022-10-21T08:36:09.678Z,71.98
2022-10-21T08:38:37.611Z,72.54
2022-10-21T08:41:12.040Z,72.62
2022-10-21T08:43:40.501Z,72.56
2022-10-21T08:46:12.728Z,72.29
2022-10-21T08:48:42.896Z,71.44
2022-10-21T08:51:16.319Z,75.47
2022-10-21T08:53:48.088Z,78.04
2022-10-21T08:56:19.853Z,78.91
2022-10-21T08:58:48.949Z,79.45
2022-10-21T09:01:22.827Z,78.98
2022-10-21T09:03:54.595Z,78.33
2022-10-21T09:06:25.283Z,77.80
2022-10-21T09:09:13.157Z,77.69
2022-10-21T09:11:52.025Z,79.11
2022-10-21T09:14:44.366Z,78.89
2022-10-21T09:17:38.142Z,80.35
2022-10-21T09:20:15.830Z,80.90
2022-10-21T09:22:50.000Z,81.09
2022-10-21T09:25:21.689Z,82.69
2022-10-21T09:27:57.474Z,82.96
2022-10-21T09:30:25.870Z,84.96
2022-10-21T09:32:58.312Z,85.44
2022-10-21T09:35:32.843Z,85.09
2022-10-21T09:38:03.918Z,84.74
2022-10-21T09:40:33.942Z,85.31
2022-10-21T09:43:02.404Z,86.44
2022-10-21T09:45:33.901Z,86.13
2022-10-21T09:48:05.904Z,87.09
2022-10-21T09:50:35.441Z,88.22
2022-10-21T09:53:06.937Z,87.50
2022-10-21T09:55:34.779Z,85.87
2022-10-21T09:58:04.619Z,85.43
2022-10-21T10:00:47.117Z,89.53
2022-10-21T10:03:30.592Z,88.74
2022-10-21T10:05:58.581Z,89.71
2022-10-21T10:08:38.333Z,89.73
2022-10-21T10:11:18.062Z,90.34
2022-10-21T10:13:47.223Z,89.57
2022-10-21T10:16:22.878Z,90.46
2022-10-21T10:18:53.895Z,90.23
2022-10-21T10:21:22.575Z,93.94
2022-10-21T10:23:52.534Z,92.66
2022-10-21T10:26:27.712Z,93.18
2022-10-21T10:28:58.920Z,90.62
2022-10-21T10:31:33.008Z,88.57
2022-10-21T10:34:04.978Z,88.25
2022-10-21T10:36:36.095Z,90.43
2022-10-21T10:39:07.601Z,91.78
2022-10-21T10:41:38.421Z,90.10
2022-10-21T10:44:12.057Z,88.72
2022-10-21T10:46:40.243Z,88.34
2022-10-21T10:49:22.413Z,87.46
2022-10-21T10:52:05.744Z,86.16
2022-10-21T10:54:33.628Z,84.65
2022-10-21T10:57:04.502Z,83.76
2022-10-21T10:59:36.359Z,86.75
2022-10-21T11:02:17.397Z,89.19
2022-10-21T11:05:02.382Z,89.23
2022-10-21T11:07:34.438Z,88.95
2022-10-21T11:10:04.883Z,89.95
2022-10-21T11:12:33.200Z,92.16
2022-10-21T11:15:01.410Z,100.00
2022-10-21T11:17:37.358Z,81.17
2022-10-21T11:20:12.412Z,79.20
2022-10-21T11:22:43.928Z,75.98
2022-10-21T11:25:20.607Z,74.28
2022-10-21T11:28:07.473Z,74.33
2022-10-21T11:30:43.332Z,74.42
2022-10-21T11:33:18.507Z,74.06
2022-10-21T11:35:57.422Z,72.92
2022-10-21T11:38:42.033Z,73.37
2022-10-21T11:41:20.703Z,71.92
2022-10-21T11:43:56.549Z,71.47
2022-10-21T11:46:30.468Z,70.96
2022-10-21T11:49:24.738Z,73.14
2022-10-21T11:51:58.432Z,74.31
2022-10-21T11:54:37.994Z,74.13
2022-10-21T11:57:12.665Z,73.51
2022-10-21T11:59:56.657Z,72.20
2022-10-21T12:02:40.295Z,72.75
2022-10-21T12:05:16.495Z,72.61
2022-10-21T12:08:06.231Z,71.59
2022-10-21T12:10:36.752Z,71.19
2022-10-21T12:13:08.317Z,70.72
2022-10-21T12:15:41.194Z,70.26
2022-10-21T12:18:15.132Z,68.29
2022-10-21T12:20:43.454Z,67.58
2022-10-21T12:23:15.190Z,67.11
2022-10-21T12:25:46.541Z,65.02
2022-10-21T12:28:18.337Z,64.15
2022-10-21T12:30:50.805Z,64.04
2022-10-21T12:33:25.286Z,64.08
2022-10-21T12:35:55.243Z,64.31
2022-10-21T12:38:27.354Z,64.19
2022-10-21T12:41:26.755Z,62.88
2022-10-21T12:43:55.566Z,61.49
2022-10-21T12:46:26.137Z,59.77
2022-10-21T12:48:53.992Z,58.21
2022-10-21T12:51:24.859Z,57.39
2022-10-21T12:53:56.639Z,56.55
2022-10-21T12:56:30.105Z,54.54
2022-10-21T12:59:01.643Z,54.94
2022-10-21T13:02:09.198Z,57.47
2022-10-21T13:04:48.695Z,55.67
2022-10-21T13:07:34.609Z,55.96
2022-10-21T13:10:16.781Z,56.04
2022-10-21T13:12:47.447Z,55.88
2022-10-21T13:15:46.797Z,55.93
2022-10-21T13:18:53.117Z,56.54
2022-10-21T13:21:24.821Z,57.24
2022-10-21T13:23:53.069Z,57.55
2022-10-21T13:26:25.241Z,53.91
2022-10-21T13:29:02.464Z,52.00
2022-10-21T13:31:30.692Z,53.32
2022-10-21T13:33:58.821Z,52.18
2022-10-21T13:39:22.493Z,51.85
2022-10-21T13:42:00.556Z,52.00
2022-10-21T13:44:31.497Z,50.88
2022-10-21T13:46:59.526Z,51.58
2022-10-21T13:49:29.116Z,53.27
2022-10-21T13:51:57.726Z,54.72
2022-10-21T13:54:25.879Z,54.26
2022-10-21T13:56:53.558Z,55.62
2022-10-21T13:59:28.875Z,55.83
2022-10-21T14:01:58.029Z,55.94
2022-10-21T14:04:27.665Z,56.51
2022-10-21T14:06:58.126Z,55.23
2022-10-21T14:09:28.657Z,55.25
2022-10-21T14:12:00.059Z,54.53
2022-10-21T14:14:30.344Z,53.98
2022-10-21T14:17:00.477Z,54.52
2022-10-21T14:19:32.208Z,54.21
2022-10-21T14:22:01.160Z,54.60
2022-10-21T14:24:33.224Z,53.76
2022-10-21T14:27:01.673Z,53.58
2022-10-21T14:29:33.895Z,52.59
2022-10-21T14:32:02.377Z,52.35
2022-10-21T14:34:32.553Z,52.71
2022-10-21T14:37:01.894Z,53.48
2022-10-21T14:39:30.622Z,54.00
2022-10-21T14:42:03.445Z,54.04
2022-10-21T14:44:32.834Z,54.06
2022-10-21T14:47:00.860Z,54.59
2022-10-21T14:49:30.605Z,53.70
2022-10-21T14:52:00.926Z,53.08
2022-10-21T14:54:39.291Z,51.17
2022-10-21T14:57:07.142Z,50.88
2022-10-21T14:59:39.241Z,51.87
2022-10-21T15:02:16.293Z,53.71
2022-10-21T15:04:51.586Z,53.25
2022-10-21T15:10:18.011Z,54.27
2022-10-21T15:12:47.390Z,54.92
2022-10-21T15:15:44.511Z,54.98
2022-10-21T15:18:15.672Z,54.45
2022-10-21T15:20:51.681Z,54.79
2022-10-21T15:23:20.354Z,56.57
2022-10-21T15:25:48.384Z,56.78
2022-10-21T15:28:19.000Z,57.15
2022-10-21T15:30:48.181Z,57.04
2022-10-21T15:33:15.949Z,55.97
2022-10-21T15:35:43.748Z,56.81
2022-10-21T15:38:11.515Z,55.17
2022-10-21T15:40:39.296Z,55.08
2022-10-21T15:43:07.042Z,55.79
2022-10-21T15:45:34.954Z,54.15
2022-10-21T15:48:04.139Z,54.50
2022-10-21T15:50:32.021Z,54.62
2022-10-21T15:52:59.783Z,54.97
2022-10-21T15:55:27.539Z,54.82
2022-10-21T15:57:55.274Z,56.72
2022-10-21T16:00:24.236Z,56.29
2022-10-21T16:02:52.457Z,55.02
2022-10-21T16:05:22.327Z,54.63
2022-10-21T16:07:51.175Z,56.81
2022-10-21T16:10:21.201Z,56.77
2022-10-21T16:12:49.634Z,57.10
2022-10-21T16:15:18.857Z,57.65
2022-10-21T16:17:48.772Z,58.78
2022-10-21T16:20:18.551Z,60.75
2022-10-21T16:22:47.797Z,59.24
2022-10-21T16:25:15.957Z,58.42
2022-10-21T16:27:55.093Z,59.68
2022-10-21T16:30:25.754Z,60.21
2022-10-21T16:32:53.626Z,59.80
2022-10-21T16:35:22.493Z,59.84
2022-10-21T16:37:51.795Z,60.40
2022-10-21T16:40:21.098Z,60.21
2022-10-21T16:42:49.172Z,58.68
2022-10-21T16:45:18.110Z,60.40
2022-10-21T16:47:56.523Z,60.29
2022-10-21T16:50:26.454Z,59.39
2022-10-21T16:52:55.551Z,59.76
2022-10-21T16:55:23.255Z,59.53
2022-10-21T16:57:51.032Z,58.18
2022-10-21T17:00:19.140Z,59.16
2022-10-21T17:02:49.273Z,59.50
2022-10-21T17:05:17.130Z,60.03
2022-10-21T17:07:44.898Z,59.97
2022-10-21T17:10:14.009Z,61.27
2022-10-21T17:12:41.839Z,60.71
2022-10-21T17:15:12.226Z,60.70
2022-10-21T17:17:40.106Z,60.36
2022-10-21T17:20:09.076Z,61.35
2022-10-21T17:22:36.765Z,61.55
2022-10-21T17:25:04.886Z,62.07
2022-10-21T17:27:34.007Z,62.77
2022-10-21T17:30:01.797Z,61.85
2022-10-21T17:32:29.555Z,61.88
2022-10-21T17:34:58.391Z,62.10
2022-10-21T17:37:26.144Z,61.35
2022-10-21T17:39:53.861Z,61.12
2022-10-21T17:42:21.861Z,61.44
2022-10-21T17:44:52.639Z,60.77
2022-10-21T17:47:20.409Z,60.12
2022-10-21T17:49:48.153Z,60.86
2022-10-21T17:52:15.900Z,62.03
2022-10-21T17:54:43.888Z,63.32
2022-10-21T17:57:12.145Z,62.66
2022-10-21T17:59:39.974Z,62.99
2022-10-21T18:02:09.395Z,64.07
2022-10-21T18:04:38.161Z,62.82
2022-10-21T18:07:09.317Z,62.50
2022-10-21T18:09:37.989Z,62.13
2022-10-21T18:12:09.390Z,62.71
2022-10-21T18:14:37.401Z,61.77
2022-10-21T18:17:05.162Z,63.31
2022-10-21T18:19:34.555Z,63.10
2022-10-21T18:22:02.357Z,62.39
2022-10-21T18:24:30.121Z,62.01
2022-10-21T18:26:57.937Z,62.41
2022-10-21T18:29:25.794Z,61.63
2022-10-21T18:31:53.615Z,62.92
2022-10-21T18:34:21.305Z,63.04
2022-10-21T18:39:23.260Z,66.00
2022-10-21T18:41:50.991Z,66.36
2022-10-21T18:44:18.744Z,66.66
2022-10-21T18:46:49.210Z,66.04
2022-10-21T18:49:19.156Z,66.81
2022-10-21T18:51:46.946Z,65.56
2022-10-21T18:54:16.307Z,65.43
2022-10-21T18:56:44.980Z,65.39
2022-10-21T18:59:12.763Z,64.66
2022-10-21T19:01:41.344Z,64.22
2022-10-21T19:04:09.311Z,65.26
2022-10-21T19:06:40.099Z,65.51
2022-10-21T19:09:12.886Z,65.81
2022-10-21T19:11:42.477Z,64.76
2022-10-21T19:14:13.808Z,65.77
2022-10-21T19:16:42.630Z,66.01
2022-10-21T19:19:10.771Z,64.27
2022-10-21T19:21:38.906Z,62.95
2022-10-21T19:24:07.152Z,61.98
2022-10-21T19:26:35.867Z,60.79
2022-10-21T19:29:07.145Z,62.11
2022-10-21T19:31:36.337Z,64.46
2022-10-21T19:34:06.325Z,63.05
2022-10-21T19:36:34.063Z,62.91
2022-10-21T19:41:29.438Z,62.99
2022-10-21T19:43:59.052Z,64.78
2022-10-21T19:46:30.738Z,65.96
2022-10-21T19:48:58.481Z,64.82
2022-10-21T19:51:26.532Z,64.76
2022-10-21T19:53:55.337Z,64.45
2022-10-21T19:56:25.692Z,63.54
2022-10-21T19:58:54.931Z,63.17
2022-10-21T20:01:24.315Z,64.31
2022-10-21T20:03:54.470Z,65.20
2022-10-21T20:06:24.104Z,64.66
2022-10-21T20:08:52.119Z,64.32
2022-10-21T20:11:20.858Z,63.56
2022-10-21T20:13:49.195Z,65.27
2022-10-21T20:16:17.832Z,64.97
2022-10-21T20:18:45.766Z,65.00
2022-10-21T20:21:15.147Z,63.43
2022-10-21T20:23:42.952Z,62.63
2022-10-21T20:26:10.853Z,62.90
2022-10-21T20:28:39.241Z,63.78
2022-10-21T20:31:09.136Z,64.52
2022-10-21T20:33:38.679Z,64.86
2022-10-21T20:36:07.504Z,65.42
2022-10-21T20:38:36.657Z,65.09
2022-10-21T20:41:07.236Z,65.25
2022-10-21T20:43:36.418Z,64.90
2022-10-21T20:46:04.960Z,65.24
2022-10-21T20:48:33.186Z,65.43
2022-10-21T20:51:05.764Z,63.45
2022-10-21T20:53:34.750Z,63.30
2022-10-21T20:56:04.901Z,63.17
2022-10-21T20:58:34.901Z,63.15
2022-10-21T21:01:08.048Z,65.00
2022-10-21T21:03:37.890Z,63.67
2022-10-21T21:06:05.853Z,63.72
2022-10-21T21:08:34.675Z,62.35
2022-10-21T21:11:03.984Z,62.00
2022-10-21T21:13:31.759Z,60.87
2022-10-21T21:16:07.275Z,61.02
2022-10-21T21:18:35.415Z,62.76
2022-10-21T21:21:04.825Z,64.45
2022-10-21T21:23:32.782Z,66.77
2022-10-21T21:26:06.487Z,66.05
2022-10-21T21:28:36.303Z,64.62
2022-10-21T21:31:04.457Z,63.51
2022-10-21T21:33:32.398Z,63.40
2022-10-21T21:36:00.253Z,63.04
2022-10-21T21:38:29.064Z,62.13
2022-10-21T21:40:57.949Z,61.21
2022-10-21T21:43:27.436Z,60.49
2022-10-21T21:45:55.354Z,60.37
2022-10-21T21:48:23.210Z,60.12
2022-10-21T21:50:51.299Z,59.85
2022-10-21T21:53:24.791Z,59.67
2022-10-21T21:55:52.518Z,59.44
2022-10-21T21:58:20.223Z,59.83
2022-10-21T22:00:49.379Z,58.76
2022-10-21T22:03:17.183Z,59.08
2022-10-21T22:05:44.976Z,58.76
2022-10-21T22:08:12.824Z,59.01
2022-10-21T22:10:40.575Z,58.83
2022-10-21T22:13:08.574Z,58.76
2022-10-21T22:15:47.741Z,59.16
2022-10-21T22:18:17.478Z,60.26
2022-10-21T22:20:46.439Z,61.53
2022-10-21T22:23:14.120Z,61.20
2022-10-21T22:25:41.919Z,61.37
2022-10-21T22:28:09.646Z,61.65
2022-10-21T22:30:37.410Z,61.17
2022-10-21T22:33:05.251Z,61.28
2022-10-21T22:35:34.376Z,61.32
2022-10-21T22:38:02.126Z,61.26
2022-10-21T22:40:29.841Z,61.26
2022-10-21T22:42:57.602Z,62.91
2022-10-21T22:45:25.496Z,61.72
2022-10-21T22:47:53.257Z,61.02
2022-10-21T22:50:21.002Z,60.61
2022-10-21T22:52:50.135Z,61.10
2022-10-21T22:55:17.995Z,60.78
2022-10-21T22:57:45.775Z,60.80
2022-10-21T23:00:14.645Z,60.64
2022-10-21T23:02:42.498Z,61.05
2022-10-21T23:05:10.549Z,60.50
2022-10-21T23:07:38.331Z,60.14
2022-10-21T23:10:08.563Z,60.02
2022-10-21T23:12:36.444Z,59.41
2022-10-21T23:15:05.594Z,59.13
2022-10-21T23:17:33.374Z,58.66
2022-10-21T23:20:01.328Z,58.58
2022-10-21T23:22:29.088Z,59.80
2022-10-21T23:24:56.842Z,59.21
2022-10-21T23:27:27.210Z,59.92
2022-10-21T23:29:55.086Z,59.33
2022-10-21T23:32:22.888Z,59.58
2022-10-21T23:34:50.726Z,59.82
2022-10-21T23:39:51.242Z,59.98
2022-10-21T23:42:18.985Z,60.51
2022-10-21T23:44:48.090Z,60.95
2022-10-21T23:47:15.934Z,62.00
2022-10-21T23:49:43.707Z,62.87
2022-10-21T23:52:11.510Z,62.85
2022-10-21T23:54:39.258Z,62.98
2022-10-21T23:57:07.047Z,62.44
2022-10-21T23:59:35.872Z,62.95
